Time;durP1;ratioP1;P1;durP2;ratioP2;P2;SDS_P1;SDS_P2;PMS_P1;PMS_P2;Temp;Humidity;BMP_temperature;BMP_pressure;BME280_temperature;BME280_humidity;BME280_pressure;Samples;Min_cycle;Max_cycle;Signal;HPM_P1;HPM_P2
2023/09/18 00:01:08;;;;;;;32.40;28.92;;;17.40;99.90;;;;;;5004153;28;20457;-83
2023/09/18 00:03:34;;;;;;;55.08;30.55;;;17.30;99.90;;;;;;5020546;28;20056;-83
2023/09/18 00:06:00;;;;;;;176.80;41.95;;;17.40;99.90;;;;;;5036941;28;20045;-83
2023/09/18 00:08:26;;;;;;;122.95;35.72;;;17.30;99.90;;;;;;5020374;28;20382;-84
2023/09/18 00:10:55;;;;;;;125.38;37.28;;;17.30;99.90;;;;;;5021522;28;20045;-83
2023/09/18 00:13:22;;;;;;;47.50;31.42;;;17.20;99.90;;;;;;5007654;28;20033;-83
2023/09/18 00:15:48;;;;;;;32.15;28.70;;;17.20;99.90;;;;;;5006866;28;20393;-84
2023/09/18 00:18:15;;;;;;;31.63;27.98;;;17.10;99.90;;;;;;5020434;28;20046;-84
2023/09/18 00:20:42;;;;;;;28.52;25.40;;;17.20;99.90;;;;;;5020006;28;20048;-84
2023/09/18 00:23:08;;;;;;;26.73;23.30;;;17.20;99.90;;;;;;5036714;28;20187;-84
2023/09/18 00:25:34;;;;;;;28.25;25.20;;;17.20;99.90;;;;;;5036814;28;20045;-84
2023/09/18 00:28:00;;;;;;;34.60;26.95;;;17.20;99.90;;;;;;5006656;28;20512;-84
2023/09/18 00:30:26;;;;;;;35.67;31.77;;;17.10;99.90;;;;;;5016795;28;20476;-84
2023/09/18 00:32:51;;;;;;;34.42;30.55;;;17.10;99.90;;;;;;5020038;28;20045;-84
2023/09/18 00:35:17;;;;;;;37.67;32.05;;;17.10;99.90;;;;;;5013889;28;20055;-84
2023/09/18 00:37:43;;;;;;;36.28;31.95;;;17.20;99.90;;;;;;5001183;28;20472;-84
2023/09/18 00:40:10;;;;;;;38.00;33.63;;;17.10;99.90;;;;;;4972844;28;20038;-84
2023/09/18 00:42:36;;;;;;;36.65;32.50;;;17.10;99.90;;;;;;5013952;28;20044;-84
2023/09/18 00:45:02;;;;;;;34.55;30.98;;;17.20;99.90;;;;;;5036418;28;20045;-84
2023/09/18 00:47:28;;;;;;;47.13;34.42;;;17.10;99.90;;;;;;5019615;28;20049;-84
2023/09/18 00:49:55;;;;;;;42.83;34.30;;;17.20;99.90;;;;;;5019922;28;20853;-84
2023/09/18 00:52:23;;;;;;;41.47;35.55;;;17.10;99.90;;;;;;5033005;28;20045;-84
2023/09/18 00:54:49;;;;;;;43.78;35.17;;;17.10;99.90;;;;;;5016949;28;20052;-84
2023/09/18 00:57:15;;;;;;;44.67;37.47;;;17.10;99.90;;;;;;5035093;28;20042;-84
2023/09/18 00:59:41;;;;;;;41.80;36.17;;;17.10;99.90;;;;;;5025117;28;20058;-83
2023/09/18 01:02:08;;;;;;;42.03;35.70;;;17.20;99.90;;;;;;5033540;28;20036;-83
2023/09/18 01:04:34;;;;;;;47.03;36.80;;;17.20;99.90;;;;;;5011082;28;20048;-84
2023/09/18 01:07:03;;;;;;;45.25;38.03;;;17.20;99.90;;;;;;5032071;28;20049;-83
2023/09/18 01:09:30;;;;;;;47.15;40.00;;;17.20;99.90;;;;;;5004169;28;20041;-84
2023/09/18 01:12:23;;;;;;;43.53;37.03;;;17.20;99.90;;;;;;4999643;28;20040;-84
2023/09/18 01:15:20;;;;;;;45.78;38.20;;;17.20;99.90;;;;;;5008288;28;20074;-83
2023/09/18 01:17:46;;;;;;;48.35;39.33;;;17.20;99.90;;;;;;5010763;28;20045;-85
2023/09/18 01:20:12;;;;;;;46.25;36.85;;;17.30;99.90;;;;;;5026325;28;20037;-84
2023/09/18 01:22:44;;;;;;;47.95;39.08;;;17.20;99.90;;;;;;4998229;28;20080;-85
2023/09/18 01:25:17;;;;;;;46.58;38.55;;;17.30;99.90;;;;;;5031144;28;20084;-84
2023/09/18 01:27:43;;;;;;;51.47;38.20;;;17.30;99.90;;;;;;5013443;28;20083;-84
2023/09/18 01:30:09;;;;;;;44.22;36.53;;;17.30;99.90;;;;;;5012563;28;20664;-84
2023/09/18 01:32:38;;;;;;;45.72;37.35;;;17.30;99.90;;;;;;5016544;28;20370;-84
2023/09/18 01:35:07;;;;;;;43.25;36.47;;;17.30;99.90;;;;;;5032173;28;20045;-84
2023/09/18 01:37:34;;;;;;;43.20;35.47;;;17.30;99.90;;;;;;5009082;28;20520;-84
2023/09/18 01:40:06;;;;;;;39.85;35.45;;;17.30;99.90;;;;;;5032324;28;20080;-83
2023/09/18 01:42:32;;;;;;;40.35;35.75;;;17.40;99.90;;;;;;5000363;28;20128;-83
2023/09/18 01:44:59;;;;;;;39.63;34.78;;;17.40;99.90;;;;;;5016362;28;20040;-83
2023/09/18 01:47:28;;;;;;;38.25;34.15;;;17.40;99.90;;;;;;5011879;28;20107;-83
2023/09/18 01:49:54;;;;;;;38.45;33.20;;;17.30;99.90;;;;;;4999725;28;20041;-83
2023/09/18 01:52:20;;;;;;;39.22;34.00;;;17.30;99.90;;;;;;5031544;28;20041;-83
2023/09/18 01:54:46;;;;;;;38.58;33.25;;;17.30;99.90;;;;;;5015760;28;20052;-83
2023/09/18 01:57:12;;;;;;;38.42;33.80;;;17.30;99.90;;;;;;5015636;28;20045;-83
2023/09/18 01:59:38;;;;;;;38.75;33.42;;;17.20;99.90;;;;;;5010641;28;20493;-83
2023/09/18 02:02:07;;;;;;;37.03;32.80;;;17.30;99.90;;;;;;5032264;28;20041;-83
2023/09/18 02:04:33;;;;;;;37.67;33.00;;;17.30;99.90;;;;;;5019047;28;20041;-83
2023/09/18 02:07:00;;;;;;;36.30;32.28;;;17.20;99.90;;;;;;5032824;28;20040;-83
2023/09/18 02:09:26;;;;;;;34.67;30.90;;;17.20;99.90;;;;;;5031445;28;20053;-83
2023/09/18 02:11:51;;;;;;;33.97;30.27;;;17.20;99.90;;;;;;5032280;28;20134;-83
2023/09/18 02:14:17;;;;;;;34.10;30.60;;;17.30;99.90;;;;;;5015389;28;20572;-83
2023/09/18 02:16:45;;;;;;;34.47;30.10;;;17.40;99.90;;;;;;5015072;28;20124;-84
2023/09/18 02:19:12;;;;;;;34.17;30.25;;;17.30;99.90;;;;;;5026737;28;20046;-83
2023/09/18 02:21:38;;;;;;;35.00;29.95;;;17.40;99.90;;;;;;5029922;28;20040;-83
2023/09/18 02:24:04;;;;;;;32.55;28.33;;;17.40;99.90;;;;;;4996802;28;20128;-83
2023/09/18 02:26:30;;;;;;;31.77;28.50;;;17.40;99.90;;;;;;5030406;28;20104;-83
2023/09/18 02:28:59;;;;;;;30.45;27.15;;;17.40;99.90;;;;;;4998324;28;20428;-83
2023/09/18 02:31:25;;;;;;;30.75;27.60;;;17.50;99.90;;;;;;5014525;28;20043;-83
2023/09/18 02:33:51;;;;;;;31.38;27.63;;;17.50;99.90;;;;;;4998054;28;20042;-83
2023/09/18 02:36:16;;;;;;;28.95;25.90;;;17.50;99.90;;;;;;5031316;28;20049;-83
2023/09/18 02:38:43;;;;;;;30.05;26.05;;;17.50;99.90;;;;;;5014934;28;20040;-83
2023/09/18 02:41:09;;;;;;;28.73;25.67;;;17.50;99.90;;;;;;5015206;28;20065;-83
2023/09/18 02:43:37;;;;;;;29.90;26.83;;;17.50;99.90;;;;;;5011715;28;20124;-83
2023/09/18 02:46:05;;;;;;;29.08;25.08;;;17.50;99.90;;;;;;5004280;28;20061;-82
2023/09/18 02:48:31;;;;;;;27.85;24.85;;;17.50;99.90;;;;;;5014476;28;20118;-83
2023/09/18 02:50:58;;;;;;;29.35;26.25;;;17.50;99.90;;;;;;5014954;28;20041;-82
2023/09/18 02:53:24;;;;;;;27.83;24.90;;;17.50;99.90;;;;;;4998223;28;20091;-83
2023/09/18 02:55:52;;;;;;;27.75;24.05;;;17.50;99.90;;;;;;5014906;28;20037;-83
2023/09/18 02:58:19;;;;;;;25.17;22.58;;;17.50;99.90;;;;;;5014495;28;20553;-83
2023/09/18 03:00:46;;;;;;;26.45;23.45;;;17.50;99.90;;;;;;5014997;28;20037;-83
2023/09/18 03:03:13;;;;;;;25.00;22.40;;;17.50;99.90;;;;;;4998664;28;20060;-83
2023/09/18 03:05:39;;;;;;;25.90;23.27;;;17.50;99.90;;;;;;5031523;28;20103;-83
2023/09/18 03:08:06;;;;;;;27.27;22.08;;;17.50;99.90;;;;;;5013085;28;20067;-84
2023/09/18 03:10:35;;;;;;;25.95;21.75;;;17.50;99.90;;;;;;4999717;28;20053;-83
2023/09/18 03:13:02;;;;;;;25.25;22.38;;;17.50;99.90;;;;;;5024418;28;20057;-83
2023/09/18 03:15:28;;;;;;;23.55;21.13;;;17.50;99.90;;;;;;5011854;28;20089;-83
2023/09/18 03:17:55;;;;;;;25.35;22.05;;;17.50;99.90;;;;;;5037579;28;20025;-82
2023/09/18 03:20:24;;;;;;;24.33;21.75;;;17.50;99.90;;;;;;5015928;28;20093;-82
2023/09/18 03:22:58;;;;;;;23.45;20.95;;;17.50;99.90;;;;;;4984579;28;20117;-84
2023/09/18 03:25:25;;;;;;;23.63;21.17;;;17.50;99.90;;;;;;5014841;28;20051;-84
2023/09/18 03:27:56;;;;;;;24.70;21.17;;;17.50;99.90;;;;;;5018197;28;20413;-83
2023/09/18 03:30:23;;;;;;;23.52;19.55;;;17.50;99.90;;;;;;5000357;28;20045;-84
2023/09/18 03:32:50;;;;;;;23.33;20.90;;;17.50;99.90;;;;;;5000003;28;20045;-84
2023/09/18 03:35:18;;;;;;;24.13;21.15;;;17.50;99.90;;;;;;4998472;28;20409;-84
2023/09/18 03:37:45;;;;;;;23.33;20.00;;;17.50;99.90;;;;;;5004721;28;20519;-83
2023/09/18 03:40:11;;;;;;;23.13;20.63;;;17.60;99.90;;;;;;4997434;28;20049;-83
2023/09/18 03:42:37;;;;;;;21.83;19.35;;;17.60;99.90;;;;;;5014516;28;20045;-83
2023/09/18 03:45:06;;;;;;;24.98;20.83;;;17.60;99.90;;;;;;5012604;28;20049;-83
2023/09/18 03:47:33;;;;;;;22.10;19.77;;;17.60;99.90;;;;;;5014071;28;20053;-83
2023/09/18 03:49:59;;;;;;;21.35;19.05;;;17.60;99.90;;;;;;5008658;28;20042;-83
2023/09/18 03:52:25;;;;;;;21.23;19.08;;;17.60;99.90;;;;;;5014767;28;20072;-83
2023/09/18 03:54:51;;;;;;;22.02;19.70;;;17.60;99.90;;;;;;5014404;28;20374;-83
2023/09/18 03:57:16;;;;;;;21.00;18.90;;;17.60;99.90;;;;;;5005499;28;20068;-83
2023/09/18 03:59:42;;;;;;;21.48;19.17;;;17.60;99.90;;;;;;4978661;28;20038;-83
2023/09/18 04:02:08;;;;;;;22.48;19.25;;;17.60;99.90;;;;;;5002440;28;20037;-83
2023/09/18 04:04:33;;;;;;;20.95;18.38;;;17.60;99.90;;;;;;5031526;28;20050;-83
2023/09/18 04:06:59;;;;;;;21.48;18.30;;;17.60;99.90;;;;;;5014132;28;20427;-83
2023/09/18 04:09:25;;;;;;;21.05;18.85;;;17.70;99.90;;;;;;4995416;28;20045;-83
2023/09/18 04:11:51;;;;;;;22.73;19.55;;;17.70;99.90;;;;;;4982654;28;20046;-83
2023/09/18 04:14:17;;;;;;;20.85;18.45;;;17.60;99.90;;;;;;4992045;28;20100;-83
2023/09/18 04:16:43;;;;;;;20.15;18.00;;;17.70;99.90;;;;;;4998064;28;20042;-83
2023/09/18 04:19:09;;;;;;;20.42;18.17;;;17.70;99.90;;;;;;5013962;28;20100;-83
2023/09/18 04:21:35;;;;;;;19.95;17.83;;;17.70;99.90;;;;;;5007567;28;20037;-83
2023/09/18 04:24:01;;;;;;;20.48;17.80;;;17.70;99.90;;;;;;4987265;28;20476;-83
2023/09/18 04:26:30;;;;;;;21.83;18.23;;;17.70;99.90;;;;;;5004620;28;20044;-84
2023/09/18 04:28:59;;;;;;;20.65;18.15;;;17.70;99.90;;;;;;5014410;28;20037;-83
2023/09/18 04:31:25;;;;;;;19.40;17.40;;;17.70;99.90;;;;;;5002583;28;20592;-83
2023/09/18 04:33:51;;;;;;;20.30;18.13;;;17.70;99.90;;;;;;5017061;28;20124;-83
2023/09/18 04:36:17;;;;;;;21.25;18.17;;;17.70;99.90;;;;;;4988162;28;20034;-83
2023/09/18 04:38:43;;;;;;;20.25;18.10;;;17.70;99.90;;;;;;4997610;28;20034;-83
2023/09/18 04:41:10;;;;;;;23.05;18.70;;;17.70;99.90;;;;;;5018421;28;20034;-83
2023/09/18 04:43:38;;;;;;;19.67;17.23;;;17.70;99.90;;;;;;5017199;28;20382;-83
2023/09/18 04:46:05;;;;;;;20.05;18.05;;;17.70;99.90;;;;;;5017178;28;20393;-83
2023/09/18 04:48:34;;;;;;;21.45;18.35;;;17.70;99.90;;;;;;5017074;28;20414;-83
2023/09/18 04:51:01;;;;;;;19.63;17.52;;;17.70;99.90;;;;;;5016685;28;20049;-83
2023/09/18 04:53:30;;;;;;;20.75;17.67;;;17.70;99.90;;;;;;5002792;28;20124;-83
2023/09/18 04:55:56;;;;;;;23.13;17.58;;;17.70;99.90;;;;;;5033218;28;20053;-83
2023/09/18 04:58:22;;;;;;;20.45;16.92;;;17.70;99.90;;;;;;4984420;28;20045;-83
2023/09/18 05:00:55;;;;;;;19.92;16.52;;;17.80;99.90;;;;;;5032134;28;20175;-83
2023/09/18 05:03:21;;;;;;;20.27;17.15;;;17.80;99.90;;;;;;5025525;28;20419;-83
2023/09/18 05:05:47;;;;;;;18.95;16.92;;;17.80;99.90;;;;;;5033213;28;20493;-83
2023/09/18 05:08:12;;;;;;;20.60;16.15;;;17.80;99.90;;;;;;5011461;28;20041;-83
2023/09/18 05:10:38;;;;;;;20.55;16.48;;;17.80;99.90;;;;;;5000421;28;20171;-83
2023/09/18 05:13:04;;;;;;;21.05;16.77;;;17.80;99.90;;;;;;5016332;28;20064;-84
2023/09/18 05:15:30;;;;;;;18.83;16.83;;;17.80;99.90;;;;;;5007470;28;20044;-83
2023/09/18 05:17:57;;;;;;;18.65;16.58;;;17.80;99.90;;;;;;5032977;28;20041;-82
2023/09/18 05:20:28;;;;;;;18.67;16.48;;;17.90;99.90;;;;;;5033850;28;20037;-83
2023/09/18 05:22:55;;;;;;;20.27;16.95;;;17.80;99.90;;;;;;5032988;28;20043;-83
2023/09/18 05:25:22;;;;;;;20.45;17.58;;;17.80;99.90;;;;;;5032612;28;20095;-82
2023/09/18 05:27:55;;;;;;;19.25;16.17;;;17.80;99.90;;;;;;4999179;28;20546;-82
2023/09/18 05:30:27;;;;;;;18.67;16.67;;;17.80;99.90;;;;;;5016371;28;20396;-82
2023/09/18 05:32:54;;;;;;;20.38;17.10;;;17.80;99.90;;;;;;5013174;28;20046;-82
2023/09/18 05:35:21;;;;;;;20.58;17.38;;;17.80;99.90;;;;;;5015419;28;20095;-83
2023/09/18 05:37:47;;;;;;;18.35;16.33;;;17.80;99.90;;;;;;5016387;28;20048;-83
2023/09/18 05:40:13;;;;;;;19.58;16.10;;;17.80;99.90;;;;;;5022649;28;20041;-82
2023/09/18 05:42:45;;;;;;;20.88;16.88;;;17.80;99.90;;;;;;5024113;28;20090;-82
2023/09/18 05:45:11;;;;;;;;;;;17.80;99.90;;;;;;5015910;28;20100;-83
2023/09/18 05:47:38;;;;;;;17.83;15.80;;;17.80;99.90;;;;;;5015634;28;19925;-84
2023/09/18 05:50:17;;;;;;;19.73;16.65;;;17.90;99.90;;;;;;5033379;28;20116;-82
2023/09/18 05:52:47;;;;;;;17.48;15.18;;;17.90;99.90;;;;;;5032348;28;20095;-82
2023/09/18 05:55:15;;;;;;;16.85;14.73;;;17.90;99.90;;;;;;5015975;28;20041;-82
2023/09/18 05:57:40;;;;;;;18.08;13.88;;;17.90;99.90;;;;;;5015840;28;20176;-82
2023/09/18 06:00:07;;;;;;;16.10;13.55;;;18.00;99.90;;;;;;5000247;28;20160;-82
2023/09/18 06:02:32;;;;;;;16.27;13.52;;;18.00;99.90;;;;;;5017570;28;20042;-83
2023/09/18 06:05:00;;;;;;;15.48;12.50;;;18.00;99.90;;;;;;4999976;28;20052;-83
2023/09/18 06:07:26;;;;;;;18.08;12.35;;;18.10;99.90;;;;;;5024810;28;20081;-83
2023/09/18 06:09:53;;;;;;;14.32;11.82;;;18.10;99.90;;;;;;5008000;28;20049;-83
2023/09/18 06:12:19;;;;;;;14.93;11.52;;;18.10;99.90;;;;;;5018244;28;20274;-82
2023/09/18 06:14:46;;;;;;;14.75;10.88;;;18.20;99.90;;;;;;5015282;28;20105;-83
2023/09/18 06:17:12;;;;;;;13.45;11.13;;;18.30;99.90;;;;;;5019784;28;20739;-83
2023/09/18 06:19:38;;;;;;;13.80;10.23;;;18.40;99.90;;;;;;4982625;28;20045;-82
2023/09/18 06:22:04;;;;;;;14.32;10.93;;;18.40;99.90;;;;;;5002331;28;20087;-82
2023/09/18 06:24:30;;;;;;;13.57;11.07;;;18.40;99.90;;;;;;4987264;28;20525;-83
2023/09/18 06:26:56;;;;;;;13.45;10.82;;;18.50;99.90;;;;;;4985241;28;21441;-82
2023/09/18 06:29:21;;;;;;;15.65;11.00;;;18.50;99.90;;;;;;4984942;28;20077;-82
2023/09/18 06:31:47;;;;;;;16.17;11.00;;;18.60;99.90;;;;;;4972889;28;20042;-82
2023/09/18 06:34:13;;;;;;;16.60;11.20;;;18.60;99.90;;;;;;5001594;28;20120;-82
2023/09/18 06:36:39;;;;;;;11.93;10.63;;;18.60;99.90;;;;;;4989971;28;20033;-82
2023/09/18 06:39:05;;;;;;;13.93;11.00;;;18.60;99.90;;;;;;5002862;28;20498;-81
2023/09/18 06:41:30;;;;;;;13.95;11.50;;;18.60;99.90;;;;;;4990090;28;20040;-82
2023/09/18 06:43:57;;;;;;;13.52;10.73;;;18.60;99.90;;;;;;5002873;28;20033;-81
2023/09/18 06:46:22;;;;;;;20.80;11.00;;;18.60;99.90;;;;;;4986438;28;20049;-82
2023/09/18 06:48:50;;;;;;;24.23;11.80;;;18.60;99.90;;;;;;5002015;28;20050;-85
2023/09/18 06:51:16;;;;;;;18.13;12.88;;;18.60;99.90;;;;;;4998857;28;20038;-83
2023/09/18 06:53:44;;;;;;;21.90;13.32;;;18.60;99.90;;;;;;4985794;28;20042;-84
2023/09/18 06:56:10;;;;;;;19.60;14.23;;;18.60;99.90;;;;;;5000106;28;20033;-83
2023/09/18 06:58:36;;;;;;;25.35;14.30;;;18.60;99.90;;;;;;4998662;28;20052;-83
2023/09/18 07:01:03;;;;;;;25.50;14.10;;;18.50;99.90;;;;;;4983540;28;20518;-83
2023/09/18 07:03:28;;;;;;;22.08;14.30;;;18.50;99.90;;;;;;5000191;28;20378;-83
2023/09/18 07:05:54;;;;;;;20.27;14.85;;;18.50;99.90;;;;;;5015211;28;20041;-85
2023/09/18 07:08:23;;;;;;;23.67;15.00;;;18.50;99.90;;;;;;4998238;28;20080;-82
2023/09/18 07:10:52;;;;;;;22.60;14.50;;;18.40;99.90;;;;;;5014322;28;20540;-83
2023/09/18 07:13:18;;;;;;;23.17;14.30;;;18.50;99.90;;;;;;5012763;28;20095;-83
2023/09/18 07:15:44;;;;;;;23.50;15.48;;;18.50;99.90;;;;;;5018415;28;20041;-83
2023/09/18 07:18:13;;;;;;;21.50;17.08;;;18.50;99.90;;;;;;4971315;28;20592;-82
2023/09/18 07:20:40;;;;;;;29.25;18.10;;;18.50;99.90;;;;;;5015167;28;20046;-82
2023/09/18 07:23:06;;;;;;;19.60;13.52;;;18.60;99.90;;;;;;4997043;28;20075;-83
2023/09/18 07:25:31;;;;;;;16.67;12.52;;;18.50;99.90;;;;;;4985445;28;20057;-82
2023/09/18 07:28:00;;;;;;;24.90;16.63;;;18.50;99.90;;;;;;5013861;28;20095;-83
2023/09/18 07:30:27;;;;;;;20.00;15.43;;;18.50;99.90;;;;;;5014965;28;20490;-83
2023/09/18 07:32:58;;;;;;;18.75;12.82;;;18.50;99.90;;;;;;4999458;28;20038;-82
2023/09/18 07:35:25;;;;;;;17.05;13.32;;;18.50;99.90;;;;;;5015163;28;20056;-83
2023/09/18 07:37:51;;;;;;;15.85;12.20;;;18.50;99.90;;;;;;4997841;28;20055;-82
2023/09/18 07:40:17;;;;;;;15.00;13.02;;;18.50;99.90;;;;;;4997990;28;20041;-83
2023/09/18 07:42:45;;;;;;;15.10;13.27;;;18.50;99.90;;;;;;5020055;28;20103;-83
2023/09/18 07:45:12;;;;;;;15.27;13.00;;;18.60;99.90;;;;;;5019321;28;20049;-83
2023/09/18 07:47:37;;;;;;;16.17;14.48;;;18.60;99.90;;;;;;5001761;28;20049;-83
2023/09/18 07:50:04;;;;;;;17.00;14.73;;;18.60;99.90;;;;;;5003454;28;20041;-82
2023/09/18 07:52:31;;;;;;;19.50;16.50;;;18.60;99.90;;;;;;5000650;28;20447;-84
2023/09/18 07:55:00;;;;;;;18.85;15.55;;;18.70;99.90;;;;;;5025417;28;20043;-82
2023/09/18 07:57:29;;;;;;;21.90;17.77;;;18.80;99.90;;;;;;5006074;28;20037;-83
2023/09/18 07:59:55;;;;;;;21.10;17.27;;;18.80;99.90;;;;;;4988003;28;20385;-83
2023/09/18 08:02:22;;;;;;;23.95;18.73;;;18.90;99.90;;;;;;5005622;28;20042;-83
2023/09/18 08:04:48;;;;;;;21.40;17.65;;;18.90;99.90;;;;;;5018424;28;20052;-82
2023/09/18 08:07:14;;;;;;;24.35;19.23;;;18.90;99.90;;;;;;5002973;28;20045;-83
2023/09/18 08:09:40;;;;;;;23.88;17.02;;;18.90;99.90;;;;;;5004322;28;20045;-84
2023/09/18 08:12:07;;;;;;;21.17;18.35;;;19.00;99.90;;;;;;4990925;28;20057;-83
2023/09/18 08:14:36;;;;;;;18.73;16.63;;;19.00;99.90;;;;;;4973948;28;20045;-83
2023/09/18 08:17:04;;;;;;;21.48;16.55;;;19.00;99.90;;;;;;5004264;28;20041;-84
2023/09/18 08:19:32;;;;;;;17.25;15.18;;;19.00;99.90;;;;;;4988216;28;20033;-83
2023/09/18 08:21:59;;;;;;;21.67;15.60;;;19.00;99.90;;;;;;5021447;28;20053;-83
2023/09/18 08:24:25;;;;;;;20.45;15.68;;;19.00;99.90;;;;;;5006069;28;20041;-83
2023/09/18 08:26:51;;;;;;;15.85;13.82;;;19.10;99.90;;;;;;4989257;28;20049;-84
2023/09/18 08:29:18;;;;;;;15.85;14.15;;;19.00;99.90;;;;;;5022648;28;20113;-84
2023/09/18 08:31:44;;;;;;;19.50;15.00;;;19.00;99.90;;;;;;5005545;28;20103;-84
2023/09/18 08:34:10;;;;;;;22.88;16.77;;;19.00;99.90;;;;;;5006124;28;20046;-83
2023/09/18 08:36:35;;;;;;;19.60;15.95;;;19.00;99.90;;;;;;5021716;28;20037;-83
2023/09/18 08:39:01;;;;;;;21.63;17.48;;;19.00;99.90;;;;;;5005549;28;20083;-83
2023/09/18 08:41:30;;;;;;;23.10;17.92;;;18.90;99.90;;;;;;5004711;28;20652;-84
2023/09/18 08:44:01;;;;;;;24.85;17.23;;;18.90;99.90;;;;;;5006931;28;20045;-84
2023/09/18 08:46:27;;;;;;;22.00;16.93;;;18.90;99.90;;;;;;5002039;28;20045;-83
2023/09/18 08:48:54;;;;;;;23.42;17.60;;;18.90;99.90;;;;;;4990310;28;20123;-83
2023/09/18 08:51:21;;;;;;;24.45;18.65;;;19.00;99.90;;;;;;4990138;28;20100;-84
2023/09/18 08:53:47;;;;;;;25.00;18.80;;;19.00;99.90;;;;;;5004339;28;20508;-85
2023/09/18 08:56:14;;;;;;;25.48;18.73;;;19.00;99.90;;;;;;5005660;28;20025;-85
2023/09/18 08:58:42;;;;;;;25.88;18.48;;;19.00;99.90;;;;;;5001660;28;20103;-84
2023/09/18 09:01:12;;;;;;;24.95;18.63;;;19.00;99.90;;;;;;5021303;28;20627;-82
2023/09/18 09:03:41;;;;;;;23.02;18.70;;;19.00;99.90;;;;;;5018003;28;20106;-84
2023/09/18 09:06:09;;;;;;;25.35;19.83;;;19.00;99.90;;;;;;4985606;28;20045;-83
2023/09/18 09:08:35;;;;;;;25.42;18.73;;;19.10;99.90;;;;;;4974586;28;20037;-83
2023/09/18 09:11:01;;;;;;;24.70;19.67;;;19.00;99.90;;;;;;5009233;28;20438;-83
2023/09/18 09:13:27;;;;;;;23.92;19.13;;;19.10;99.90;;;;;;5029880;28;20128;-83
2023/09/18 09:15:55;;;;;;;24.15;19.50;;;19.10;99.90;;;;;;5014571;28;20044;-83
2023/09/18 09:18:23;;;;;;;26.00;21.30;;;19.10;99.90;;;;;;5018025;28;20103;-84
2023/09/18 09:21:01;;;;;;;28.00;21.95;;;19.10;99.90;;;;;;5033965;28;20042;-83
2023/09/18 09:23:49;;;;;;;28.35;21.02;;;19.10;99.90;;;;;;5014217;28;20552;-83
2023/09/18 09:26:18;;;;;;;28.75;21.00;;;19.10;99.90;;;;;;5012453;28;20045;-84
2023/09/18 09:28:45;;;;;;;27.73;21.45;;;19.10;99.90;;;;;;5016380;28;20124;-84
2023/09/18 09:31:11;;;;;;;30.23;21.33;;;19.20;99.90;;;;;;4999890;28;20038;-83
2023/09/18 09:33:40;;;;;;;29.35;21.80;;;19.20;99.90;;;;;;5016979;28;20037;-82
2023/09/18 09:36:07;;;;;;;28.33;21.65;;;19.20;99.90;;;;;;5012623;28;20048;-84
2023/09/18 09:38:34;;;;;;;27.48;21.35;;;19.30;99.90;;;;;;5016287;28;20120;-82
2023/09/18 09:41:09;;;;;;;24.15;19.40;;;19.30;99.90;;;;;;5024901;28;20493;-84
2023/09/18 09:43:35;;;;;;;26.58;20.35;;;19.40;99.90;;;;;;4993378;28;20038;-83
2023/09/18 09:46:02;;;;;;;24.67;19.52;;;19.40;99.90;;;;;;5016080;28;20041;-83
2023/09/18 09:48:31;;;;;;;27.88;20.85;;;19.50;99.90;;;;;;4999655;28;20057;-83
2023/09/18 09:50:59;;;;;;;28.65;21.48;;;19.50;99.90;;;;;;5016201;28;20401;-84
2023/09/18 09:53:48;;;;;;;25.48;19.77;;;19.70;99.90;;;;;;5000230;28;20049;-82
2023/09/18 09:56:14;;;;;;;24.38;19.42;;;19.90;99.90;;;;;;5012046;28;20444;-84
2023/09/18 09:58:44;;;;;;;23.50;19.58;;;19.90;99.90;;;;;;5013426;28;20044;-83
2023/09/18 10:01:17;;;;;;;25.30;18.48;;;20.00;99.90;;;;;;5032112;28;20805;-84
2023/09/18 10:03:44;;;;;;;24.48;19.10;;;20.00;99.90;;;;;;5015538;28;20038;-82
2023/09/18 10:06:14;;;;;;;23.63;19.33;;;20.10;99.90;;;;;;4998310;28;20132;-83
2023/09/18 10:08:40;;;;;;;22.40;19.50;;;20.10;99.90;;;;;;5009652;28;20533;-82
2023/09/18 10:11:10;;;;;;;20.60;17.75;;;20.10;99.90;;;;;;5015466;28;20049;-82
2023/09/18 10:14:12;;;;;;;19.70;17.70;;;20.20;99.90;;;;;;5018450;28;20500;-80
2023/09/18 10:16:41;;;;;;;19.55;17.65;;;20.20;99.90;;;;;;5002555;28;20045;-82
2023/09/18 10:19:18;;;;;;;21.73;17.00;;;20.20;99.90;;;;;;5002685;28;20038;-82
2023/09/18 10:22:05;;;;;;;19.95;17.52;;;20.30;99.90;;;;;;5015504;28;20041;-82
2023/09/18 10:24:39;;;;;;;19.45;16.00;;;20.20;99.90;;;;;;5030292;28;20079;-81
2023/09/18 10:27:05;;;;;;;19.65;15.00;;;20.30;99.90;;;;;;5015153;28;20076;-82
2023/09/18 10:29:34;;;;;;;17.88;15.95;;;20.30;99.90;;;;;;5031736;28;20049;-82
2023/09/18 10:32:04;;;;;;;17.35;15.48;;;20.30;99.90;;;;;;5014687;28;20052;-82
2023/09/18 10:34:33;;;;;;;19.55;14.88;;;20.40;99.90;;;;;;5015647;28;20390;-82
2023/09/18 10:37:00;;;;;;;17.33;14.75;;;20.50;99.90;;;;;;5031360;28;20088;-83
2023/09/18 10:39:26;;;;;;;14.93;13.20;;;20.50;99.90;;;;;;5028520;28;20540;-82
2023/09/18 10:42:01;;;;;;;15.27;12.80;;;20.60;99.90;;;;;;5031408;28;20083;-82
2023/09/18 10:44:28;;;;;;;14.70;11.80;;;20.60;99.90;;;;;;5015308;28;20037;-81
2023/09/18 10:46:55;;;;;;;14.02;11.95;;;20.70;99.90;;;;;;4998765;28;20045;-82
2023/09/18 10:49:22;;;;;;;16.02;13.07;;;20.80;99.90;;;;;;5014909;28;20126;-82
2023/09/18 10:51:48;;;;;;;14.07;12.65;;;20.90;99.90;;;;;;5014914;28;20048;-81
2023/09/18 10:54:21;;;;;;;14.90;11.13;;;21.00;99.90;;;;;;5014019;28;20091;-82
2023/09/18 10:56:47;;;;;;;14.55;10.45;;;21.20;99.90;;;;;;5031571;28;20077;-82
2023/09/18 10:59:14;;;;;;;10.90;9.32;;;21.30;99.90;;;;;;5030964;28;20040;-83
2023/09/18 11:01:40;;;;;;;11.20;9.05;;;21.40;99.90;;;;;;5031006;28;20552;-81
2023/09/18 11:04:08;;;;;;;11.70;9.10;;;21.50;99.90;;;;;;5014419;28;20216;-81
2023/09/18 11:06:52;;;;;;;10.63;8.80;;;21.40;99.90;;;;;;5014351;28;20041;-82
2023/09/18 11:09:20;;;;;;;9.52;8.30;;;21.50;99.90;;;;;;5005837;28;20121;-82
2023/09/18 11:11:48;;;;;;;9.15;8.15;;;21.50;99.90;;;;;;5011333;28;20609;-82
2023/09/18 11:14:17;;;;;;;7.53;6.60;;;21.50;99.90;;;;;;4988603;28;20396;-82
2023/09/18 11:16:44;;;;;;;7.82;7.05;;;21.50;99.90;;;;;;5014555;28;20029;-82
2023/09/18 11:19:11;;;;;;;7.95;6.93;;;21.40;99.90;;;;;;4996031;28;20107;-82
2023/09/18 11:21:37;;;;;;;8.18;7.15;;;21.40;99.90;;;;;;5007635;28;20037;-82
2023/09/18 11:24:21;;;;;;;7.72;7.00;;;21.30;99.90;;;;;;5014368;28;20041;-81
2023/09/18 11:26:48;;;;;;;7.40;6.68;;;21.40;99.90;;;;;;5014028;28;20087;-82
2023/09/18 11:29:22;;;;;;;8.23;7.00;;;21.60;99.90;;;;;;5013927;28;20155;-82
2023/09/18 11:31:56;;;;;;;9.23;6.93;;;21.70;99.90;;;;;;5016967;28;20114;-83
2023/09/18 11:34:34;;;;;;;8.02;7.20;;;21.70;99.90;;;;;;4994080;28;20050;-81
2023/09/18 11:37:04;;;;;;;8.57;6.45;;;21.60;99.90;;;;;;5025618;28;20120;-81
2023/09/18 11:39:38;;;;;;;6.75;6.05;;;21.70;99.90;;;;;;5012374;28;20040;-81
2023/09/18 11:42:19;;;;;;;8.77;6.38;;;22.00;99.90;;;;;;5014357;28;20086;-81
2023/09/18 11:44:48;;;;;;;6.15;5.55;;;22.10;99.90;;;;;;5011054;28;20034;-81
2023/09/18 11:47:19;;;;;;;10.38;6.63;;;22.30;99.90;;;;;;4997797;28;20045;-81
2023/09/18 11:50:00;;;;;;;6.25;5.75;;;22.30;99.90;;;;;;5030936;28;20056;-84
2023/09/18 11:52:27;;;;;;;6.47;5.88;;;22.30;99.90;;;;;;5014160;28;20401;-83
2023/09/18 11:54:55;;;;;;;6.93;5.38;;;22.30;99.90;;;;;;5020270;28;20054;-82
2023/09/18 11:57:21;;;;;;;5.70;5.20;;;22.30;99.90;;;;;;5008467;28;20735;-81
2023/09/18 11:59:48;;;;;;;6.88;4.90;;;22.30;99.90;;;;;;5000120;28;20116;-82
2023/09/18 12:02:35;;;;;;;6.82;5.68;;;22.30;99.90;;;;;;5030429;28;20112;-81
2023/09/18 12:05:13;;;;;;;5.97;5.38;;;22.20;99.90;;;;;;5030363;28;20362;-83
2023/09/18 12:07:43;;;;;;;7.30;5.13;;;22.00;99.90;;;;;;4992183;28;20482;-81
2023/09/18 12:10:10;;;;;;;6.57;4.90;;;21.80;99.90;;;;;;5024027;28;20431;-81
2023/09/18 12:12:36;;;;;;;6.80;5.05;;;21.70;99.90;;;;;;4993411;28;20042;-82
2023/09/18 12:15:03;;;;;;;7.15;5.60;;;21.60;99.90;;;;;;4996765;28;20127;-82
2023/09/18 12:17:29;;;;;;;6.10;5.60;;;21.50;99.90;;;;;;5013930;28;20033;-81
2023/09/18 12:19:55;;;;;;;6.25;5.63;;;21.40;99.90;;;;;;4997640;28;20037;-82
2023/09/18 12:22:28;;;;;;;6.03;5.53;;;21.40;99.90;;;;;;5013270;28;20045;-82
2023/09/18 12:25:08;;;;;;;7.00;5.47;;;21.30;99.90;;;;;;5006996;28;20102;-83
2023/09/18 12:27:36;;;;;;;7.00;6.30;;;21.30;99.90;;;;;;5003528;28;20045;-81
2023/09/18 12:30:04;;;;;;;6.72;6.03;;;21.20;99.90;;;;;;5017979;28;20041;-82
2023/09/18 12:32:32;;;;;;;7.88;6.55;;;21.00;99.90;;;;;;5027226;28;20133;-82
2023/09/18 12:34:58;;;;;;;8.00;6.68;;;21.00;99.90;;;;;;5008401;28;20120;-83